Main page
METAR-TAF:

METAR-TAF

Airports :

Lisbon Airport

Lisbon, Portugal

latitude: 38-46N, longitude: 009-08W, elevation: 114 m

Current weather observation

The report was made 9 hours and 4 minutes ago, at 05:00 UTC
Wind 4 kt from the West, varying between Southwest and West
Temperature 23°C
Humidity 53%
Pressure 1014 hPa
Visibility 10 km or more
no clouds below 1500 m and no cumulonimbus

METAR: LPPT 210500Z 27004KT 220V280 CAVOK 23/13 Q1014

Time: 15:04 (14:04 UTC)

Forecast

The report was made 9 hours and 4 minutes ago, at 05:00 UTC
Forecast valid from 21 at 06 UTC to 22 at 12 UTC
Wind 8 kt from the West
Visibility 10 km or more
no clouds below 1500 m and no cumulonimbus
Becoming
from 21 at 16 UTC to 21 at 18 UTC
Wind 10 kt from the West/Northwest
Becoming
from 22 at 00 UTC to 22 at 02 UTC
Wind 3 kt from variable directions
Becoming
from 22 at 10 UTC to 22 at 12 UTC
Wind 8 kt from the West/Southwest

TAF: LPPT 210500Z 2106/2212 26008KT CAVOK BECMG 2116/2118 30010KT BECMG 2200/2202 VRB03KT BECMG 2210/2212 24008KT

Weather observations and forecasts of more than 4000 airports (METAR and TAF reports).

The available stations are represented by yellow and red dots on the map.

Hover mouse over dot to see the name of the station.

Then click to see weather observations and forecasts.

To change the map : click on the green buttons with a black cross to zoom in, on the green button with a dash to zoom out, or on the green arrows for adjacent maps.


METAR-TAF: